Time;durP1;ratioP1;P1;durP2;ratioP2;P2;SDS_P1;SDS_P2;PMS_P1;PMS_P2;Temp;Humidity;BMP_temperature;BMP_pressure;BME280_temperature;BME280_humidity;BME280_pressure;Samples;Min_cycle;Max_cycle;Signal;HPM_P1;HPM_P2
2023/07/23 00:00:51;;;;;;;1.10;1.00;;;;;;;15.55;100.00;97848.91;1223981;75;2920948;-67
2023/07/23 00:03:23;;;;;;;1.00;1.00;;;;;;;15.72;100.00;97855.16;1224561;75;2925002;-70
2023/07/23 00:05:56;;;;;;;0.95;0.95;;;;;;;15.75;100.00;97847.88;1219819;75;3192190;-67
2023/07/23 00:08:28;;;;;;;1.20;1.10;;;;;;;15.63;100.00;97843.63;1222797;75;2925633;-68
2023/07/23 00:11:04;;;;;;;1.60;1.50;;;;;;;15.33;100.00;97847.69;1224364;75;2923322;-66
2023/07/23 00:13:36;;;;;;;1.60;1.50;;;;;;;15.28;100.00;97853.22;1224329;75;2928641;-70
2023/07/23 00:16:09;;;;;;;2.80;2.60;;;;;;;15.05;100.00;97846.94;1224355;75;2925539;-67
2023/07/23 00:18:42;;;;;;;1.45;1.35;;;;;;;15.34;100.00;97853.94;1223659;75;2931116;-69
2023/07/23 00:21:14;;;;;;;2.35;2.15;;;;;;;15.35;100.00;97855.47;1224476;75;2923727;-65
2023/07/23 00:23:47;;;;;;;3.10;2.00;;;;;;;15.36;100.00;97856.97;1223929;75;2931754;-68
2023/07/23 00:26:22;;;;;;;2.35;2.10;;;;;;;15.57;100.00;97857.44;1223476;75;2929987;-67
2023/07/23 00:28:55;;;;;;;1.90;1.60;;;;;;;15.69;100.00;97863.69;1224425;75;2924131;-69
2023/07/23 00:31:27;;;;;;;1.45;1.35;;;;;;;15.69;100.00;97858.91;1224423;75;2927445;-65
2023/07/23 00:34:00;;;;;;;1.40;1.30;;;;;;;15.74;100.00;97846.41;1223545;75;2927935;-70
2023/07/23 00:36:33;;;;;;;1.40;1.30;;;;;;;15.75;100.00;97851.41;1223813;75;2926163;-63
2023/07/23 00:39:05;;;;;;;1.90;1.35;;;;;;;15.51;100.00;97845.66;1224525;75;2932786;-69
2023/07/23 00:41:41;;;;;;;1.60;1.50;;;;;;;15.56;100.00;97850.41;1223900;75;2938227;-66
2023/07/23 00:44:13;;;;;;;2.25;2.05;;;;;;;15.23;100.00;97840.94;1223775;75;2924051;-69
2023/07/23 00:46:47;;;;;;;2.65;1.70;;;;;;;15.41;100.00;97838.91;1223674;75;2937526;-67
2023/07/23 00:49:19;;;;;;;1.80;1.70;;;;;;;15.36;100.00;97842.44;1224368;75;2922604;-64
2023/07/23 00:51:53;;;;;;;1.55;1.45;;;;;;;15.46;100.00;97838.13;1224529;75;2924995;-67
2023/07/23 00:54:26;;;;;;;1.70;1.60;;;;;;;15.38;100.00;97837.91;1224494;75;2927527;-67
2023/07/23 00:57:04;;;;;;;3.00;1.85;;;;;;;15.27;100.00;97835.16;1224033;75;2937576;-67
2023/07/23 00:59:36;;;;;;;2.20;2.00;;;;;;;14.94;100.00;97841.47;1224407;75;2922921;-68
2023/07/23 01:02:09;;;;;;;3.30;3.00;;;;;;;14.79;100.00;97834.19;1224474;75;2929231;-67
2023/07/23 01:04:42;;;;;;;3.45;3.10;;;;;;;14.86;100.00;97832.91;1224335;75;2927157;-66
2023/07/23 01:07:15;;;;;;;2.70;2.50;;;;;;;15.05;100.00;97841.44;1224225;75;2934307;-66
2023/07/23 01:09:49;;;;;;;2.45;2.25;;;;;;;14.97;100.00;97835.69;1223472;75;2922239;-65
2023/07/23 01:12:24;;;;;;;2.50;2.30;;;;;;;15.03;100.00;97825.41;1224041;75;2918690;-66
2023/07/23 01:14:57;;;;;;;3.00;2.75;;;;;;;14.86;100.00;97830.16;1223897;75;2928237;-64
2023/07/23 01:17:30;;;;;;;5.30;3.30;;;;;;;14.63;100.00;97827.38;1224414;75;2930736;-65
2023/07/23 01:20:04;;;;;;;3.40;2.75;;;;;;;14.83;100.00;97823.66;1225134;75;2920292;-66
2023/07/23 01:22:40;;;;;;;2.70;2.50;;;;;;;14.85;100.00;97826.66;1224390;75;2929374;-69
2023/07/23 01:25:13;;;;;;;3.40;3.10;;;;;;;14.56;100.00;97824.38;1224291;75;2925071;-68
2023/07/23 01:27:45;;;;;;;3.15;2.85;;;;;;;14.81;100.00;97822.63;1223430;75;2938524;-67
2023/07/23 01:30:18;;;;;;;2.45;2.20;;;;;;;14.93;100.00;97826.16;1224621;75;2931145;-68
2023/07/23 01:32:51;;;;;;;2.05;1.85;;;;;;;14.96;100.00;97817.66;1224079;75;2920838;-66
2023/07/23 01:35:24;;;;;;;2.60;2.15;;;;;;;14.83;100.00;97834.66;1223872;75;2931541;-68
2023/07/23 01:38:02;;;;;;;3.40;1.80;;;;;;;14.63;100.00;97834.91;1223654;75;2924531;-66
2023/07/23 01:40:34;;;;;;;4.70;2.20;;;;;;;14.67;100.00;97830.66;1224690;75;2920634;-68
2023/07/23 01:43:07;;;;;;;2.20;2.00;;;;;;;14.63;100.00;97830.16;1224060;75;2928649;-68
2023/07/23 01:45:40;;;;;;;8.85;2.80;;;;;;;14.52;100.00;97823.84;1223205;75;2929545;-70
2023/07/23 01:48:12;;;;;;;2.55;2.00;;;;;;;14.58;100.00;97830.16;1223875;75;2932652;-66
2023/07/23 01:50:45;;;;;;;9.45;1.80;;;;;;;14.58;100.00;97822.63;1223151;75;2926926;-66
2023/07/23 01:53:22;;;;;;;9.65;1.60;;;;;;;14.71;100.00;97830.41;1223497;75;2922108;-66
2023/07/23 01:55:54;;;;;;;17.65;1.65;;;;;;;14.54;100.00;97824.13;1224627;75;2930156;-71
2023/07/23 01:58:27;;;;;;;4.05;1.40;;;;;;;14.67;100.00;97827.13;1223584;75;2931774;-68
2023/07/23 02:01:04;;;;;;;1.80;1.50;;;;;;;14.79;100.00;97825.13;1223929;75;2927551;-70
2023/07/23 02:03:37;;;;;;;2.25;1.15;;;;;;;14.77;100.00;97828.41;1223405;75;2930250;-67
2023/07/23 02:06:09;;;;;;;10.20;2.50;;;;;;;14.66;100.00;97828.41;1224682;75;2923834;-67
2023/07/23 02:08:44;;;;;;;4.25;2.40;;;;;;;14.72;100.00;97831.91;1224338;75;2927899;-67
2023/07/23 02:11:17;;;;;;;4.40;1.85;;;;;;;14.92;100.00;97825.41;1223741;75;2926046;-67
2023/07/23 02:13:50;;;;;;;3.30;2.55;;;;;;;14.83;100.00;97826.41;1224115;75;2924134;-65
2023/07/23 02:16:23;;;;;;;6.25;4.30;;;;;;;14.79;100.00;97827.91;1224009;75;2930878;-65
2023/07/23 02:18:56;;;;;;;3.55;3.00;;;;;;;14.87;100.00;97824.16;1224301;75;2930295;-68
2023/07/23 02:21:28;;;;;;;1.70;1.60;;;;;;;15.25;100.00;97827.41;1201996;75;4597895;-67
2023/07/23 02:24:04;;;;;;;1.75;1.65;;;;;;;15.33;100.00;97819.38;1224049;75;2938535;-67
2023/07/23 02:26:36;;;;;;;1.50;1.40;;;;;;;15.46;100.00;97821.59;1222204;75;2927148;-67
2023/07/23 02:29:09;;;;;;;2.65;1.85;;;;;;;15.46;100.00;97829.88;1224055;75;2926609;-64
2023/07/23 02:31:41;;;;;;;1.20;1.10;;;;;;;15.59;100.00;97830.09;1224228;75;2921266;-66
2023/07/23 02:34:14;;;;;;;1.90;1.60;;;;;;;15.54;100.00;97834.38;1224382;75;2924667;-66
2023/07/23 02:36:49;;;;;;;1.75;1.15;;;;;;;15.69;100.00;97833.34;1224178;75;2924738;-67
2023/07/23 02:39:24;;;;;;;1.10;1.00;;;;;;;15.70;100.00;97843.13;1224025;75;2928988;-68
2023/07/23 02:41:57;;;;;;;1.10;1.00;;;;;;;15.57;100.00;97848.41;1223995;75;2934959;-68
2023/07/23 02:44:29;;;;;;;1.30;1.20;;;;;;;15.60;100.00;97847.41;1224451;75;2926010;-65
2023/07/23 02:47:03;;;;;;;1.25;1.10;;;;;;;15.65;100.00;97847.38;1223754;75;2921882;-69
2023/07/23 02:49:36;;;;;;;1.00;1.00;;;;;;;15.74;100.00;97847.13;1223402;75;2939178;-68
2023/07/23 02:52:09;;;;;;;1.40;1.15;;;;;;;15.75;100.00;97851.41;1223626;75;2929226;-67
2023/07/23 02:54:44;;;;;;;1.90;1.00;;;;;;;15.67;100.00;97850.38;1224257;75;2923222;-68
2023/07/23 02:57:17;;;;;;;1.45;1.25;;;;;;;15.49;100.00;97846.19;1223716;75;2931554;-66
2023/07/23 02:59:50;;;;;;;1.60;1.50;;;;;;;15.62;100.00;97844.91;1223784;75;2932082;-66
2023/07/23 03:02:22;;;;;;;1.50;1.40;;;;;;;15.72;100.00;97833.09;1224365;75;2926899;-68
2023/07/23 03:04:55;;;;;;;1.45;1.35;;;;;;;15.68;100.00;97834.56;1223677;75;2940215;-69
2023/07/23 03:07:29;;;;;;;1.35;1.25;;;;;;;15.70;100.00;97832.84;1223825;75;2923406;-67
2023/07/23 03:10:04;;;;;;;2.20;1.20;;;;;;;15.79;100.00;97836.59;1223766;75;2919317;-66
2023/07/23 03:12:37;;;;;;;1.40;1.30;;;;;;;15.72;100.00;97841.38;1223821;75;2932349;-68
2023/07/23 03:15:11;;;;;;;1.35;1.25;;;;;;;15.79;100.00;97833.84;1223532;75;2930656;-68
2023/07/23 03:17:44;;;;;;;1.20;1.10;;;;;;;15.81;100.00;97837.59;1223986;75;2935964;-65
2023/07/23 03:20:17;;;;;;;1.70;1.15;;;;;;;15.64;100.00;97840.38;1223245;75;2949213;-66
2023/07/23 03:22:50;;;;;;;1.40;1.30;;;;;;;15.74;100.00;97841.63;1223337;75;2926369;-70
2023/07/23 03:25:25;;;;;;;1.15;1.05;;;;;;;15.72;100.00;97829.59;1223813;75;2927344;-68
2023/07/23 03:27:59;;;;;;;1.00;0.95;;;;;;;15.74;100.00;97827.81;1222498;75;2925993;-65
2023/07/23 03:30:32;;;;;;;2.40;2.20;;;;;;;15.19;100.00;97826.66;1224005;75;2933095;-67
2023/07/23 03:33:04;;;;;;;5.60;2.70;;;;;;;14.95;100.00;97829.91;1224339;75;2933444;-67
2023/07/23 03:35:37;;;;;;;1.80;1.70;;;;;;;15.36;100.00;97823.88;1223233;75;2946724;-67
2023/07/23 03:38:09;;;;;;;1.65;1.35;;;;;;;15.49;100.00;97834.38;1223646;75;2929624;-66
2023/07/23 03:40:45;;;;;;;1.60;1.45;;;;;;;15.52;100.00;97830.63;1223578;75;2923268;-68
2023/07/23 03:43:17;;;;;;;1.10;1.00;;;;;;;15.55;100.00;97837.88;1223744;75;2924393;-69
2023/07/23 03:45:50;;;;;;;2.85;1.30;;;;;;;15.11;100.00;97837.44;1223882;75;2939774;-65
2023/07/23 03:48:22;;;;;;;1.20;1.10;;;;;;;15.29;100.00;97838.91;1224289;75;2921075;-64
2023/07/23 03:50:55;;;;;;;2.55;1.80;;;;;;;14.65;100.00;97835.16;1224160;75;2930771;-67
2023/07/23 03:53:28;;;;;;;1.80;1.30;;;;;;;14.98;100.00;97844.69;1222862;75;2935023;-65
2023/07/23 03:56:03;;;;;;;1.75;1.25;;;;;;;15.18;100.00;97838.19;1223505;75;2934809;-68
2023/07/23 03:58:35;;;;;;;1.10;1.00;;;;;;;15.13;100.00;97834.19;1223060;75;2922221;-66
2023/07/23 04:01:08;;;;;;;0.90;0.90;;;;;;;14.98;100.00;97836.44;1222911;75;2921936;-69
2023/07/23 04:03:41;;;;;;;1.75;1.50;;;;;;;15.02;100.00;97836.94;1223339;75;2928273;-65
2023/07/23 04:06:13;;;;;;;1.15;1.05;;;;;;;15.23;100.00;97829.16;1224227;75;2936772;-68
2023/07/23 04:08:46;;;;;;;1.60;1.50;;;;;;;14.73;100.00;97829.91;1223640;75;2930739;-70
2023/07/23 04:11:21;;;;;;;1.40;1.30;;;;;;;14.75;100.00;97828.16;1223577;75;2930308;-69
2023/07/23 04:13:54;;;;;;;2.05;1.30;;;;;;;15.02;100.00;97834.19;1224121;75;2943825;-67
2023/07/23 04:16:26;;;;;;;1.50;1.40;;;;;;;15.05;100.00;97825.66;1223362;75;2911903;-68
2023/07/23 04:18:59;;;;;;;1.40;1.30;;;;;;;15.12;100.00;97827.91;1223857;75;2925434;-68
2023/07/23 04:21:31;;;;;;;1.40;1.30;;;;;;;15.06;100.00;97829.19;1224024;75;2953029;-69
2023/07/23 04:24:04;;;;;;;1.70;1.35;;;;;;;15.21;100.00;97829.66;1224170;75;2928060;-67
2023/07/23 04:26:39;;;;;;;1.60;1.50;;;;;;;15.21;100.00;97835.16;1224653;75;2923958;-70
2023/07/23 04:29:12;;;;;;;2.25;1.30;;;;;;;15.33;100.00;97836.66;1224351;75;2928067;-66
2023/07/23 04:31:44;;;;;;;1.10;1.00;;;;;;;15.36;100.00;97840.41;1223910;75;2926111;-66
2023/07/23 04:34:17;;;;;;;2.45;1.40;;;;;;;15.48;100.00;97836.38;1222615;75;2919623;-67
2023/07/23 04:36:51;;;;;;;2.40;2.15;;;;;;;15.15;100.00;97839.94;1223649;75;2929707;-67
2023/07/23 04:39:24;;;;;;;2.45;2.25;;;;;;;15.38;100.00;97842.69;1224765;75;2923665;-68
2023/07/23 04:41:59;;;;;;;2.50;2.30;;;;;;;15.42;100.00;97843.94;1222945;75;2926510;-67
2023/07/23 04:44:32;;;;;;;3.45;2.90;;;;;;;15.49;100.00;97845.41;1223436;75;2925631;-68
2023/07/23 04:47:05;;;;;;;4.40;4.00;;;;;;;15.39;100.00;97839.41;1224138;75;2926589;-66
2023/07/23 04:49:38;;;;;;;4.30;3.90;;;;;;;15.55;100.00;97849.66;1223858;75;2934470;-65
2023/07/23 04:52:10;;;;;;;4.60;4.15;;;;;;;15.52;100.00;97844.41;1223504;75;2919919;-68
2023/07/23 04:54:43;;;;;;;4.75;3.90;;;;;;;15.84;100.00;97857.91;1224452;75;2927789;-64
2023/07/23 04:57:19;;;;;;;4.95;4.45;;;;;;;15.55;100.00;97857.19;1223660;75;2928571;-71
2023/07/23 04:59:51;;;;;;;4.30;3.90;;;;;;;15.69;100.00;97855.41;1224042;75;2919890;-67
2023/07/23 05:02:24;;;;;;;3.55;3.25;;;;;;;15.89;100.00;97852.34;1224895;75;2924412;-68
2023/07/23 05:04:56;;;;;;;3.95;3.55;;;;;;;15.81;100.00;97856.16;1223905;75;2924313;-67
2023/07/23 05:07:29;;;;;;;4.55;4.15;;;;;;;15.89;100.00;97849.59;1223911;75;2926663;-68
2023/07/23 05:10:02;;;;;;;4.35;3.95;;;;;;;15.99;100.00;97847.31;1223528;75;2939702;-67
2023/07/23 05:12:39;;;;;;;5.50;5.00;;;;;;;15.96;100.00;97851.09;1223465;75;2931282;-64
2023/07/23 05:15:17;;;;;;;6.70;6.00;;;;;;;15.73;100.00;97853.94;1224052;75;2923241;-68
2023/07/23 05:17:49;;;;;;;4.60;4.10;;;;;;;16.15;100.00;97854.03;1223912;75;2923874;-69
2023/07/23 05:20:22;;;;;;;4.65;4.15;;;;;;;15.92;100.00;97854.13;1224518;75;2918834;-68
2023/07/23 05:22:55;;;;;;;4.65;4.20;;;;;;;15.75;100.00;97861.69;1222946;75;2923515;-66
2023/07/23 05:25:28;;;;;;;5.30;4.80;;;;;;;15.99;100.00;97861.09;1223629;75;2930422;-66
2023/07/23 05:28:03;;;;;;;5.40;4.90;;;;;;;15.83;100.00;97853.66;1224279;75;2960282;-70
2023/07/23 05:30:36;;;;;;;5.65;4.70;;;;;;;15.89;100.00;97857.13;1223896;75;2926596;-66
2023/07/23 05:33:10;;;;;;;4.05;3.65;;;;;;;16.20;100.00;97853.25;1224077;75;2923001;-65
2023/07/23 05:35:43;;;;;;;4.90;3.25;;;;;;;16.45;100.00;97859.66;1223479;75;2932748;-69
2023/07/23 05:38:15;;;;;;;4.25;3.85;;;;;;;16.16;100.00;97853.53;1223929;75;2945316;-68
2023/07/23 05:40:56;;;;;;;4.70;4.05;;;;;;;16.24;100.00;97850.22;1220290;75;3006438;-70
2023/07/23 05:43:31;;;;;;;4.95;4.55;;;;;;;16.30;100.00;97859.22;1223828;75;2924313;-67
2023/07/23 05:46:04;;;;;;;5.50;5.00;;;;;;;16.14;100.00;97860.81;1224236;75;2924006;-66
2023/07/23 05:48:36;;;;;;;5.70;5.10;;;;;;;16.24;100.00;97866.81;1223927;75;2924507;-66
2023/07/23 05:51:09;;;;;;;5.35;4.85;;;;;;;16.44;100.00;97860.91;1223812;75;2929062;-66
2023/07/23 05:53:42;;;;;;;6.55;5.95;;;;;;;16.34;100.00;97854.19;1223437;75;2929120;-67
2023/07/23 05:56:14;;;;;;;5.30;4.80;;;;;;;16.50;100.00;97858.88;1223832;75;2919234;-65
2023/07/23 05:58:49;;;;;;;6.95;5.40;;;;;;;16.35;100.00;97858.44;1222069;75;2925495;-64
2023/07/23 06:01:22;;;;;;;6.90;5.95;;;;;;;16.02;100.00;97865.63;1222971;75;2926988;-64
2023/07/23 06:03:55;;;;;;;5.90;5.30;;;;;;;16.05;100.00;97858.34;1223638;75;2936666;-67
2023/07/23 06:06:27;;;;;;;6.60;4.90;;;;;;;16.48;100.00;97863.41;1222990;75;2937413;-64
2023/07/23 06:09:00;;;;;;;6.95;4.70;;;;;;;16.28;100.00;97858.97;1223561;75;2932199;-66
2023/07/23 06:11:33;;;;;;;6.00;5.40;;;;;;;16.43;100.00;97861.41;1224403;75;2920717;-66
2023/07/23 06:14:08;;;;;;;5.40;4.90;;;;;;;16.52;100.00;97861.13;1223726;75;2926604;-65
2023/07/23 06:16:41;;;;;;;7.60;5.70;;;;;;;16.30;100.00;97864.75;1223735;75;2922833;-64
2023/07/23 06:19:13;;;;;;;6.60;5.90;;;;;;;16.45;100.00;97864.41;1224771;75;2921932;-67
2023/07/23 06:21:46;;;;;;;7.45;6.55;;;;;;;16.38;100.00;97862.97;1223317;75;2924012;-70
2023/07/23 06:24:19;;;;;;;7.10;6.05;;;;;;;16.40;100.00;97865.94;1223629;75;2927051;-66
2023/07/23 06:26:51;;;;;;;6.60;5.00;;;;;;;16.85;100.00;97859.44;1224253;75;2922879;-68
2023/07/23 06:29:28;;;;;;;7.65;6.25;;;;;;;16.27;100.00;97869.28;1223251;75;2949208;-65
2023/07/23 06:32:01;;;;;;;6.35;5.75;;;;;;;16.64;100.00;97867.34;1223888;75;2924144;-67
2023/07/23 06:34:34;;;;;;;5.90;5.15;;;;;;;16.57;100.00;97865.88;1224356;75;2934555;-63
2023/07/23 06:37:07;;;;;;;6.40;5.80;;;;;;;16.70;100.00;97865.31;1223513;75;2934285;-66
2023/07/23 06:39:40;;;;;;;5.80;5.20;;;;;;;16.72;100.00;97857.25;1223197;75;2930797;-65
2023/07/23 06:42:13;;;;;;;6.05;5.35;;;;;;;16.93;100.00;97858.38;1223963;75;2923600;-70
2023/07/23 06:44:49;;;;;;;5.95;5.10;;;;;;;17.06;100.00;97863.31;1223436;75;2936240;-65
2023/07/23 06:47:21;;;;;;;5.40;4.90;;;;;;;17.32;100.00;97862.84;1220525;75;3010727;-68
2023/07/23 06:49:56;;;;;;;5.30;4.40;;;;;;;17.28;100.00;97858.84;1223892;75;2923767;-68
2023/07/23 06:52:29;;;;;;;7.60;5.40;;;;;;;17.41;100.00;97856.97;1223599;75;2930615;-67
2023/07/23 06:55:02;;;;;;;6.40;4.90;;;;;;;17.44;100.00;97855.94;1223419;75;2921654;-70
2023/07/23 06:57:34;;;;;;;4.85;4.20;;;;;;;17.84;100.00;97861.84;1224205;75;2925943;-66
2023/07/23 07:00:12;;;;;;;5.20;4.70;;;;;;;17.65;100.00;97869.31;1222729;75;2927133;-66
2023/07/23 07:02:45;;;;;;;5.20;4.10;;;;;;;17.96;100.00;97858.94;1224046;75;2927711;-67
2023/07/23 07:05:17;;;;;;;5.10;4.00;;;;;;;18.09;100.00;97870.88;1223665;75;2924609;-65
2023/07/23 07:07:50;;;;;;;6.15;4.10;;;;;;;18.14;100.00;97865.81;1223782;75;2921938;-66
2023/07/23 07:10:22;;;;;;;4.85;4.35;;;;;;;18.29;100.00;97861.31;1223612;75;2919804;-65
2023/07/23 07:12:55;;;;;;;4.05;3.45;;;;;;;18.34;100.00;97867.31;1223684;75;2920133;-71
2023/07/23 07:15:30;;;;;;;3.95;3.55;;;;;;;18.49;100.00;97857.25;1223260;75;2926925;-68
2023/07/23 07:18:03;;;;;;;4.45;3.55;;;;;;;18.68;100.00;97870.38;1223337;75;2922966;-67
2023/07/23 07:20:35;;;;;;;4.90;3.65;;;;;;;18.57;100.00;97865.75;1222332;75;2920720;-67
2023/07/23 07:23:08;;;;;;;4.50;3.60;;;;;;;18.63;100.00;97860.13;1223246;75;2924585;-65
2023/07/23 07:25:41;;;;;;;4.00;3.25;;;;;;;19.09;100.00;97858.19;1223025;75;2925671;-66
2023/07/23 07:28:15;;;;;;;5.25;3.90;;;;;;;19.08;100.00;97860.22;1221696;75;2971716;-67
2023/07/23 07:30:50;;;;;;;6.90;3.35;;;;;;;19.04;100.00;97859.75;1223656;75;2931755;-64
2023/07/23 07:33:23;;;;;;;3.50;3.20;;;;;;;19.68;100.00;97861.75;1223659;75;2934068;-69
2023/07/23 07:35:57;;;;;;;4.05;3.30;;;;;;;19.81;100.00;97857.47;1222957;75;2927053;-66
2023/07/23 07:38:31;;;;;;;5.15;3.40;;;;;;;20.05;100.00;97859.28;1223540;75;2922354;-66
2023/07/23 07:41:03;;;;;;;4.65;3.30;;;;;;;20.04;100.00;97846.69;1223600;75;2935666;-66
2023/07/23 07:43:36;;;;;;;5.30;3.50;;;;;;;20.23;100.00;97852.84;1223484;75;2925865;-66
2023/07/23 07:46:11;;;;;;;4.20;3.55;;;;;;;20.31;100.00;97852.94;1223964;75;2920986;-68
2023/07/23 07:48:44;;;;;;;4.65;3.25;;;;;;;20.42;100.00;97856.22;1223949;75;2921956;-67
2023/07/23 07:51:16;;;;;;;5.85;4.00;;;;;;;20.26;100.00;97859.38;1223395;75;2922656;-69
2023/07/23 07:53:49;;;;;;;5.35;3.85;;;;;;;20.59;100.00;97853.09;1223080;75;2940667;-66
2023/07/23 07:56:23;;;;;;;4.70;3.65;;;;;;;20.15;100.00;97865.88;1221993;75;2940661;-65
2023/07/23 07:58:56;;;;;;;3.95;3.40;;;;;;;20.37;100.00;97859.13;1222857;75;2928220;-67
2023/07/23 08:01:32;;;;;;;4.55;3.10;;;;;;;20.76;100.00;97852.00;1223658;67;2923639;-68
2023/07/23 08:04:07;;;;;;;3.95;3.30;;;;;;;21.03;100.00;97858.91;1221962;75;2948316;-67
2023/07/23 08:06:42;;;;;;;6.45;3.15;;;;;;;21.03;100.00;97849.81;1222838;75;2988299;-67
2023/07/23 08:09:15;;;;;;;3.30;2.70;;;;;;;21.40;100.00;97850.72;1224033;75;2922408;-72
2023/07/23 08:11:49;;;;;;;4.75;3.90;;;;;;;21.23;100.00;97846.28;1222885;75;2922086;-65
2023/07/23 08:14:24;;;;;;;4.15;3.30;;;;;;;21.40;100.00;97839.56;1223398;75;2919573;-67
2023/07/23 08:17:00;;;;;;;4.65;3.25;;;;;;;21.53;100.00;97839.50;1223281;75;2926936;-68
2023/07/23 08:19:34;;;;;;;3.60;2.80;;;;;;;21.89;100.00;97827.63;1223775;75;2927798;-68
2023/07/23 08:22:08;;;;;;;5.40;3.25;;;;;;;21.60;99.80;97833.22;1222275;75;2981781;-70
2023/07/23 08:24:42;;;;;;;3.80;2.95;;;;;;;21.68;99.35;97825.66;1223209;75;2906991;-68
2023/07/23 08:27:20;;;;;;;3.65;3.05;;;;;;;21.86;100.00;97821.13;1223385;75;2932442;-70
2023/07/23 08:29:53;;;;;;;6.00;3.20;;;;;;;21.92;97.38;97821.69;1223263;75;2918913;-66
2023/07/23 08:32:29;;;;;;;6.00;3.20;;;;;;;22.23;99.01;97826.69;1223208;75;2945630;-70
2023/07/23 08:35:03;;;;;;;3.25;2.90;;;;;;;22.32;100.00;97818.56;1223710;75;2919490;-66
2023/07/23 08:37:37;;;;;;;4.75;2.95;;;;;;;22.52;100.00;97816.19;1223792;75;2922799;-70
2023/07/23 08:40:15;;;;;;;4.40;3.35;;;;;;;22.73;94.29;97818.84;1223693;75;2926327;-69
2023/07/23 08:43:32;;;;;;;3.70;2.95;;;;;;;22.85;92.39;97814.41;1223477;75;2932675;-68
2023/07/23 08:46:27;;;;;;;4.40;2.90;;;;;;;23.26;88.26;97811.81;1221452;75;2942862;-68
2023/07/23 08:49:11;;;;;;;3.90;2.95;;;;;;;23.05;99.54;97812.03;1222309;75;2923981;-69
2023/07/23 08:51:48;;;;;;;3.85;2.70;;;;;;;23.35;91.66;97814.03;1224417;75;2926185;-67
2023/07/23 08:54:22;;;;;;;3.50;2.70;;;;;;;23.35;89.62;97812.00;1224513;75;2926319;-67
2023/07/23 08:56:55;;;;;;;4.75;3.20;;;;;;;23.27;91.02;97807.72;1224022;75;2930778;-66
2023/07/23 08:59:29;;;;;;;3.95;3.10;;;;;;;23.22;91.29;97801.03;1223437;75;2928425;-67
2023/07/23 09:02:03;;;;;;;4.30;3.10;;;;;;;23.39;91.30;97806.78;1224751;75;2922002;-65
2023/07/23 09:04:39;;;;;;;5.45;3.30;;;;;;;23.68;86.15;97798.16;1224376;75;2932496;-74
2023/07/23 09:07:14;;;;;;;3.80;2.65;;;;;;;24.03;84.32;97804.06;1224575;75;2933108;-68
2023/07/23 09:09:49;;;;;;;5.60;3.15;;;;;;;23.93;87.53;97800.34;1224223;75;2923977;-66
2023/07/23 09:12:22;;;;;;;4.75;3.05;;;;;;;24.22;84.99;97798.00;1223504;75;2927392;-66
2023/07/23 09:14:55;;;;;;;3.15;2.50;;;;;;;24.57;84.96;97787.75;1223600;75;2918788;-66
2023/07/23 09:17:27;;;;;;;3.70;3.35;;;;;;;24.24;79.01;97790.53;1224023;75;2925979;-67
2023/07/23 09:20:03;;;;;;;4.20;3.20;;;;;;;23.99;83.48;97781.31;1223487;75;2922971;-71
2023/07/23 09:22:36;;;;;;;4.55;3.35;;;;;;;23.65;82.42;97776.19;1223279;75;2930167;-67
2023/07/23 09:25:10;;;;;;;3.65;3.15;;;;;;;24.12;76.97;97775.47;1223616;75;2924770;-67
2023/07/23 09:27:46;;;;;;;2.90;2.60;;;;;;;24.27;75.40;97787.91;1223755;75;2926240;-68
2023/07/23 09:30:23;;;;;;;3.00;2.50;;;;;;;24.42;69.45;97785.78;1223689;75;2926637;-66
2023/07/23 09:33:01;;;;;;;4.10;2.90;;;;;;;24.16;73.58;97777.91;1223803;75;2931099;-66
2023/07/23 09:35:38;;;;;;;3.45;2.55;;;;;;;24.71;69.98;97781.91;1223967;75;2937680;-66
2023/07/23 09:38:14;;;;;;;3.20;2.80;;;;;;;24.79;69.55;97777.72;1223511;75;2929474;-70
2023/07/23 09:40:48;;;;;;;4.35;3.10;;;;;;;24.29;71.60;97774.81;1222998;75;2939925;-68
2023/07/23 09:43:20;;;;;;;3.45;2.85;;;;;;;24.57;71.85;97773.03;1223802;75;2919785;-67
2023/07/23 09:45:54;;;;;;;2.80;2.25;;;;;;;25.01;70.71;97769.72;1223718;75;2920769;-65
2023/07/23 09:48:30;;;;;;;5.05;2.75;;;;;;;25.58;71.20;97773.69;1222804;75;2930527;-66
2023/07/23 09:51:10;;;;;;;2.80;2.40;;;;;;;25.64;68.82;97769.34;1223898;75;2924573;-66
2023/07/23 09:53:45;;;;;;;3.70;2.85;;;;;;;25.87;69.54;97762.75;1223406;75;2927794;-67
2023/07/23 09:56:20;;;;;;;3.40;2.70;;;;;;;25.62;66.43;97757.97;1222913;75;2930888;-66
2023/07/23 09:58:54;;;;;;;3.80;2.50;;;;;;;26.23;66.27;97762.09;1224040;75;2917108;-66
2023/07/23 10:01:26;;;;;;;3.65;2.90;;;;;;;26.38;65.96;97761.16;1223304;75;2944385;-67
2023/07/23 10:04:01;;;;;;;6.60;4.40;;;;;;;25.67;65.98;97753.41;1223527;75;2929847;-65
2023/07/23 10:06:36;;;;;;;5.95;3.90;;;;;;;26.48;64.27;97747.16;1224141;75;2945699;-65
2023/07/23 10:09:10;;;;;;;3.55;2.75;;;;;;;26.55;61.98;97740.72;1223739;75;2940979;-68
2023/07/23 10:11:42;;;;;;;3.85;2.70;;;;;;;26.30;62.97;97735.25;1223786;75;2923619;-65
2023/07/23 10:14:15;;;;;;;6.85;2.70;;;;;;;26.02;62.41;97742.91;1223409;75;2945703;-69
2023/07/23 10:16:50;;;;;;;3.50;2.70;;;;;;;25.86;62.69;97739.56;1224261;75;2935799;-64
2023/07/23 10:19:24;;;;;;;3.75;2.45;;;;;;;25.78;63.22;97735.34;1224361;75;2930703;-68
2023/07/23 10:21:59;;;;;;;2.85;2.30;;;;;;;26.26;62.36;97732.88;1224286;75;2922079;-68
2023/07/23 10:24:41;;;;;;;3.15;2.55;;;;;;;26.38;61.04;97735.16;1224332;75;2960792;-67
2023/07/23 10:27:16;;;;;;;4.00;2.65;;;;;;;26.64;62.37;97734.41;1224271;75;2922352;-69
2023/07/23 10:30:20;;;;;;;4.25;2.85;;;;;;;26.27;59.81;97731.56;1224057;75;2919847;-67
2023/07/23 10:33:31;;;;;;;2.95;2.60;;;;;;;26.80;61.00;97731.38;1224297;75;2938765;-66
2023/07/23 10:36:05;;;;;;;3.55;2.80;;;;;;;26.84;60.27;97728.84;1224352;75;2925608;-68
2023/07/23 10:38:40;;;;;;;3.00;2.35;;;;;;;27.23;58.79;97723.34;1223691;75;2940982;-69
2023/07/23 10:41:13;;;;;;;4.55;2.50;;;;;;;26.93;59.99;97728.13;1224154;75;2922884;-69
2023/07/23 10:43:48;;;;;;;3.35;2.55;;;;;;;27.38;62.96;97726.63;1223417;75;2924778;-69
2023/07/23 10:46:23;;;;;;;2.90;2.50;;;;;;;27.42;60.55;97729.00;1224032;75;2937831;-66
2023/07/23 10:48:56;;;;;;;3.20;2.60;;;;;;;27.61;59.90;97725.44;1223357;75;2926149;-68
2023/07/23 10:51:29;;;;;;;3.50;2.40;;;;;;;27.62;59.96;97724.13;1223719;75;2929013;-69
2023/07/23 10:54:06;;;;;;;3.25;2.80;;;;;;;27.25;60.22;97718.63;1224241;75;2924892;-68
2023/07/23 10:56:43;;;;;;;3.80;2.70;;;;;;;26.65;61.36;97715.47;1224290;75;2938378;-66
2023/07/23 10:59:19;;;;;;;3.40;2.55;;;;;;;27.30;61.64;97717.59;1223795;75;2923684;-71
2023/07/23 11:01:54;;;;;;;2.75;2.20;;;;;;;27.43;59.90;97712.88;1224519;75;2925520;-69
2023/07/23 11:04:29;;;;;;;3.75;2.65;;;;;;;27.17;58.70;97703.94;1223713;75;2932195;-68
2023/07/23 11:07:04;;;;;;;3.20;2.70;;;;;;;27.18;58.52;97697.72;1223682;75;2930777;-65
2023/07/23 11:09:40;;;;;;;3.85;2.50;;;;;;;28.26;57.30;97698.38;1223399;75;2928442;-69
2023/07/23 11:12:15;;;;;;;3.30;2.55;;;;;;;26.91;57.75;97705.50;1224361;75;2925058;-71
2023/07/23 11:14:48;;;;;;;3.15;2.35;;;;;;;27.60;59.11;97699.38;1222718;75;2945892;-67
2023/07/23 11:17:20;;;;;;;3.10;2.30;;;;;;;28.15;59.09;97696.94;1223945;75;2925978;-67
2023/07/23 11:19:53;;;;;;;4.30;3.10;;;;;;;27.75;58.45;97695.53;1222769;75;2924144;-67
2023/07/23 11:22:26;;;;;;;2.75;2.30;;;;;;;28.41;57.79;97686.78;1222997;75;2929120;-68
2023/07/23 11:25:01;;;;;;;3.35;2.65;;;;;;;28.39;57.89;97683.09;1223041;75;2930286;-68
2023/07/23 11:27:34;;;;;;;3.15;2.60;;;;;;;28.16;58.43;97683.63;1223890;75;2933530;-67
2023/07/23 11:30:07;;;;;;;3.45;2.70;;;;;;;28.26;58.68;97681.50;1222858;75;2927176;-70
2023/07/23 11:32:41;;;;;;;3.00;2.50;;;;;;;27.99;60.80;97676.84;1223495;75;2933624;-69
2023/07/23 11:35:14;;;;;;;2.85;2.30;;;;;;;28.21;60.54;97662.84;1224154;75;2937866;-63
2023/07/23 11:37:51;;;;;;;3.50;2.30;;;;;;;28.96;59.13;97660.88;1223648;75;2924652;-67
2023/07/23 11:40:28;;;;;;;3.30;2.60;;;;;;;28.35;59.06;97658.19;1224005;75;2924238;-69
2023/07/23 11:43:06;;;;;;;3.55;2.90;;;;;;;28.01;59.63;97653.75;1223360;75;2929864;-69